createdAt,value
2017-09-04T00:00:01.628Z,86.63
2017-09-04T00:01:01.521Z,86.35
2017-09-04T00:02:01.201Z,86.92
2017-09-04T00:03:01.507Z,86.82
2017-09-04T00:04:01.190Z,87.4
2017-09-04T00:05:01.182Z,87.59
2017-09-04T00:06:01.178Z,87.35
2017-09-04T00:07:01.490Z,87.63
2017-09-04T00:08:01.479Z,87.73
2017-09-04T00:09:01.161Z,87.44
2017-09-04T00:10:01.159Z,87.82
2017-09-04T00:11:01.150Z,88.2
2017-09-04T00:12:01.142Z,88.01
2017-09-04T00:13:01.138Z,88.3
2017-09-04T00:14:01.130Z,88.11
2017-09-04T00:15:01.126Z,88.11
2017-09-04T00:16:01.124Z,88.11
2017-09-04T00:17:01.116Z,88.11
2017-09-04T00:18:01.110Z,88.2
2017-09-04T00:19:01.102Z,88.01
2017-09-04T00:20:01.097Z,88.45
2017-09-04T00:21:01.092Z,88.01
2017-09-04T00:22:01.087Z,87.97
2017-09-04T00:23:01.392Z,88.07
2017-09-04T00:24:01.075Z,88.54
2017-09-04T00:25:01.382Z,88.35
2017-09-04T00:26:01.384Z,88.35
2017-09-04T00:27:01.374Z,88.16
2017-09-04T00:28:01.052Z,88.73
2017-09-04T00:29:01.357Z,88.07
2017-09-04T00:30:01.040Z,88.73
2017-09-04T00:31:01.349Z,87.97
2017-09-04T00:32:01.028Z,87.97
2017-09-04T00:33:01.334Z,88.07
2017-09-04T00:34:01.331Z,88.35
2017-09-04T00:35:01.113Z,88.54
2017-09-04T00:36:01.005Z,87.87
2017-09-04T00:37:01.000Z,88.07
2017-09-04T00:38:01.310Z,87.97
2017-09-04T00:39:01.304Z,88.07
2017-09-04T00:40:01.302Z,88.16
2017-09-04T00:41:01.292Z,88.07
2017-09-04T00:42:01.285Z,88.16
2017-09-04T00:43:01.278Z,88.26
2017-09-04T00:44:01.274Z,88.16
2017-09-04T00:45:01.368Z,88.07
2017-09-04T00:46:01.260Z,87.97
2017-09-04T00:47:01.259Z,87.97
2017-09-04T00:48:00.937Z,88.26
2017-09-04T00:49:01.344Z,88.07
2017-09-04T00:50:01.238Z,88.07
2017-09-04T00:51:01.235Z,87.78
2017-09-04T00:52:00.912Z,87.78
2017-09-04T00:53:00.911Z,87.59
2017-09-04T00:54:01.217Z,88.26
2017-09-04T00:55:01.208Z,88.07
2017-09-04T00:56:01.205Z,88.16
2017-09-04T00:57:01.199Z,88.07
2017-09-04T00:58:00.880Z,88.07
2017-09-04T00:59:01.194Z,87.87
2017-09-04T01:00:01.181Z,87.87
2017-09-04T01:01:01.173Z,88.02
2017-09-04T01:02:01.170Z,88.12
2017-09-04T01:03:01.161Z,87.93
2017-09-04T01:04:01.258Z,88.35
2017-09-04T01:05:01.152Z,87.87
2017-09-04T01:06:01.148Z,88.54
2017-09-04T01:07:00.828Z,88.07
2017-09-04T01:08:00.820Z,88.92
2017-09-04T01:09:01.129Z,88.73
2017-09-04T01:10:01.126Z,88.64
2017-09-04T01:11:00.832Z,88.45
2017-09-04T01:12:01.110Z,88.45
2017-09-04T01:13:01.106Z,88.54
2017-09-04T01:14:01.104Z,88.54
2017-09-04T01:15:00.783Z,88.31
2017-09-04T01:16:01.090Z,88.54
2017-09-04T01:17:00.768Z,88.64
2017-09-04T01:18:01.076Z,88.92
2017-09-04T01:19:01.073Z,88.92
2017-09-04T01:20:00.749Z,89.02
2017-09-04T01:21:01.060Z,88.73
2017-09-04T01:22:00.741Z,88.69
2017-09-04T01:23:00.734Z,88.5
2017-09-04T01:24:00.730Z,88.5
2017-09-04T01:25:01.034Z,88.78
2017-09-04T01:26:01.034Z,88.59
2017-09-04T01:27:00.711Z,88.78
2017-09-04T01:28:01.018Z,88.78
2017-09-04T01:29:01.019Z,88.78
2017-09-04T01:30:00.695Z,88.69
2017-09-04T01:31:01.101Z,88.69
2017-09-04T01:32:00.995Z,88.5
2017-09-04T01:33:00.992Z,88.5
2017-09-04T01:34:00.983Z,88.4
2017-09-04T01:35:00.666Z,88.31
2017-09-04T01:36:00.970Z,88.31
2017-09-04T01:37:00.654Z,88.59
2017-09-04T01:38:00.649Z,88.78
2017-09-04T01:39:00.957Z,88.31
2017-09-04T01:40:00.951Z,88.5
2017-09-04T01:41:00.631Z,88.21
2017-09-04T01:42:00.624Z,89.07
2017-09-04T01:43:00.933Z,89.07
2017-09-04T01:44:00.926Z,88.69
2017-09-04T01:45:00.609Z,89.45
2017-09-04T01:46:00.699Z,89.26
2017-09-04T01:47:00.596Z,89.45
2017-09-04T01:48:00.588Z,89.45
2017-09-04T01:49:00.588Z,88.78
2017-09-04T01:50:00.891Z,88.78
2017-09-04T01:51:00.572Z,88.78
2017-09-04T01:52:00.666Z,89.17
2017-09-04T01:53:00.560Z,89.17
2017-09-04T01:54:00.864Z,88.78
2017-09-04T01:55:00.550Z,89.26
2017-09-04T01:56:00.955Z,89.26
2017-09-04T01:57:00.636Z,89.26
2017-09-04T01:58:00.942Z,88.78
2017-09-04T01:59:00.837Z,88.55
2017-09-04T02:00:00.830Z,88.64
2017-09-04T02:01:00.515Z,89.4
2017-09-04T02:02:00.507Z,89.22
2017-09-04T02:03:00.814Z,89.12
2017-09-04T02:04:00.495Z,89.36
2017-09-04T02:05:00.489Z,89.6
2017-09-04T02:06:00.482Z,89.31
2017-09-04T02:07:00.478Z,89.5
2017-09-04T02:08:00.782Z,89.5
2017-09-04T02:09:00.464Z,89.6
2017-09-04T02:10:00.773Z,89.74
2017-09-04T02:11:00.455Z,89.69
2017-09-04T02:12:00.758Z,89.69
2017-09-04T02:13:00.757Z,89.79
2017-09-04T02:14:00.749Z,89.69
2017-09-04T02:15:00.431Z,89.6
2017-09-04T02:16:00.424Z,89.69
2017-09-04T02:17:00.738Z,89.69
2017-09-04T02:18:00.724Z,89.89
2017-09-04T02:19:00.718Z,89.5
2017-09-04T02:20:00.722Z,89.79
2017-09-04T02:21:00.737Z,89.79
2017-09-04T02:22:00.387Z,89.31
2017-09-04T02:23:00.381Z,89.03
2017-09-04T02:24:00.376Z,89.69
2017-09-04T02:25:00.685Z,89.69
2017-09-04T02:26:00.362Z,89.79
2017-09-04T02:27:00.769Z,89.6
2017-09-04T02:28:00.353Z,90.08
2017-09-04T02:29:00.660Z,90.08
2017-09-04T02:30:00.339Z,89.69
2017-09-04T02:31:00.335Z,89.5
2017-09-04T02:32:00.329Z,89.6
2017-09-04T02:33:00.637Z,90.17
2017-09-04T02:34:00.632Z,89.79
2017-09-04T02:35:00.312Z,90.17
2017-09-04T02:36:00.302Z,89.79
2017-09-04T02:37:00.612Z,90.17
2017-09-04T02:38:00.611Z,90.17
2017-09-04T02:39:00.605Z,90.93
2017-09-04T02:40:00.593Z,90.45
2017-09-04T02:41:00.276Z,90.74
2017-09-04T02:42:00.270Z,90.93
2017-09-04T02:43:00.574Z,90.55
2017-09-04T02:44:00.258Z,90.74
2017-09-04T02:45:00.569Z,90.93
2017-09-04T02:46:00.246Z,90.74
2017-09-04T02:47:00.553Z,90.55
2017-09-04T02:48:00.548Z,90.55
2017-09-04T02:49:00.226Z,90.74
2017-09-04T02:50:00.535Z,90.55
2017-09-04T02:51:00.215Z,90.45
2017-09-04T02:52:00.520Z,90.93
2017-09-04T02:53:00.303Z,90.93
2017-09-04T02:54:00.513Z,90.55
2017-09-04T02:55:00.191Z,90.64
2017-09-04T02:56:00.534Z,90.55
2017-09-04T02:57:00.491Z,90.93
2017-09-04T02:58:00.488Z,90.84
2017-09-04T02:59:00.580Z,91.03
2017-09-04T03:00:00.474Z,90.36
2017-09-04T03:01:00.155Z,90.45
2017-09-04T03:02:00.151Z,90.93
2017-09-04T03:03:00.145Z,90.45
2017-09-04T03:04:00.553Z,90.64
2017-09-04T03:05:00.444Z,90.74
2017-09-04T03:06:00.439Z,90.5
2017-09-04T03:07:00.436Z,90.45
2017-09-04T03:08:00.537Z,90.7
2017-09-04T03:09:00.106Z,90.64
2017-09-04T03:10:00.417Z,90.5
2017-09-04T03:11:00.196Z,90.7
2017-09-04T03:12:00.402Z,90.41
2017-09-04T03:13:00.083Z,90.7
2017-09-04T03:14:00.394Z,90.6
2017-09-04T03:15:00.387Z,90.5
2017-09-04T03:16:00.379Z,90.41
2017-09-04T03:17:00.370Z,90.79
2017-09-04T03:18:00.368Z,90.7
2017-09-04T03:19:00.359Z,90.7
2017-09-04T03:20:00.040Z,90.89
2017-09-04T03:21:00.035Z,90.98
2017-09-04T03:22:00.345Z,90.64
2017-09-04T03:23:00.440Z,90.31
2017-09-04T03:24:00.329Z,90.84
2017-09-04T03:25:00.009Z,91.08
2017-09-04T03:26:00.316Z,90.98
2017-09-04T03:26:59.997Z,91.13
2017-09-04T03:28:00.309Z,90.93
2017-09-04T03:28:59.985Z,90.55
2017-09-04T03:29:59.982Z,91.13
2017-09-04T03:31:00.392Z,91.03
2017-09-04T03:32:00.387Z,90.93
2017-09-04T03:33:00.281Z,91.17
2017-09-04T03:34:00.056Z,91.13
2017-09-04T03:35:00.264Z,90.74
2017-09-04T03:36:00.257Z,90.74
2017-09-04T03:37:00.253Z,90.98
2017-09-04T03:38:00.242Z,90.79
2017-09-04T03:39:00.245Z,90.64
2017-09-04T03:39:59.918Z,90.7
2017-09-04T03:40:59.915Z,90.79
2017-09-04T03:42:00.005Z,90.31
2017-09-04T03:43:00.212Z,90.6
2017-09-04T03:43:59.896Z,90.6
2017-09-04T03:45:00.200Z,90.31
2017-09-04T03:45:59.883Z,90.41
2017-09-04T03:47:00.190Z,90.79
2017-09-04T03:48:00.184Z,90.5
2017-09-04T03:49:00.179Z,90.89
2017-09-04T03:50:00.174Z,91.08
2017-09-04T03:51:00.166Z,91.27
2017-09-04T03:51:59.849Z,91.17
2017-09-04T03:53:00.191Z,92.22
2017-09-04T03:54:00.150Z,92.03
2017-09-04T03:55:00.149Z,92.13
2017-09-04T03:55:59.823Z,92.08
2017-09-04T03:57:00.129Z,91.88
2017-09-04T03:57:59.809Z,91.88
2017-09-04T03:58:59.804Z,91.41
2017-09-04T04:00:00.218Z,92.17
2017-09-04T04:00:59.794Z,92.03
2017-09-04T04:01:59.785Z,91.31
2017-09-04T04:02:59.781Z,91.31
2017-09-04T04:03:59.790Z,91.31
2017-09-04T04:04:59.769Z,91.22
2017-09-04T04:05:59.759Z,91.22
2017-09-04T04:06:59.755Z,91.31
2017-09-04T04:07:59.748Z,91.08
2017-09-04T04:09:00.056Z,90.6
2017-09-04T04:10:00.051Z,90.7
2017-09-04T04:11:00.043Z,90.5
2017-09-04T04:11:59.725Z,91.27
2017-09-04T04:12:59.718Z,91.17
2017-09-04T04:14:00.026Z,91.17
2017-09-04T04:15:00.020Z,90.89
2017-09-04T04:16:00.011Z,90.89
2017-09-04T04:17:00.009Z,91.17
2017-09-04T04:17:59.688Z,91.08
2017-09-04T04:18:59.681Z,91.41
2017-09-04T04:19:59.675Z,91.22
2017-09-04T04:20:59.771Z,91.03
2017-09-04T04:21:59.973Z,91.79
2017-09-04T04:22:59.658Z,91.5
2017-09-04T04:23:59.650Z,91.98
2017-09-04T04:24:59.958Z,92.08
2017-09-04T04:25:59.951Z,92.17
2017-09-04T04:26:59.944Z,91.69
2017-09-04T04:27:59.941Z,91.98
2017-09-04T04:28:59.937Z,91.98
2017-09-04T04:29:59.932Z,92.08
2017-09-04T04:30:59.609Z,91.88
2017-09-04T04:31:59.917Z,92.17
2017-09-04T04:32:59.595Z,92.27
2017-09-04T04:33:59.900Z,92.32
2017-09-04T04:34:59.897Z,91.88
2017-09-04T04:35:59.892Z,92.27
2017-09-04T04:36:59.572Z,92.03
2017-09-04T04:37:59.566Z,92.08
2017-09-04T04:38:59.560Z,91.74
2017-09-04T04:39:59.551Z,92.13
2017-09-04T04:40:59.546Z,91.94
2017-09-04T04:41:59.541Z,92.22
2017-09-04T04:42:59.848Z,90.98
2017-09-04T04:43:59.839Z,91.46
2017-09-04T04:44:59.522Z,91.84
2017-09-04T04:45:59.616Z,91.94
2017-09-04T04:46:59.820Z,91.74
2017-09-04T04:47:59.501Z,92.03
2017-09-04T04:48:59.497Z,91.74
2017-09-04T04:49:59.802Z,91.74
2017-09-04T04:50:59.485Z,92.13
2017-09-04T04:51:59.796Z,91.65
2017-09-04T04:52:59.470Z,92.08
2017-09-04T04:53:59.799Z,92.03
2017-09-04T04:54:59.459Z,91.65
2017-09-04T04:55:59.763Z,92.03
2017-09-04T04:56:59.445Z,92.13
2017-09-04T04:57:59.438Z,92.27
2017-09-04T04:58:59.747Z,92.17
2017-09-04T04:59:59.430Z,91.94
2017-09-04T05:00:59.737Z,92.13
2017-09-04T05:01:59.827Z,91.94
2017-09-04T05:02:59.725Z,91.65
2017-09-04T05:03:59.404Z,91.94
2017-09-04T05:04:59.395Z,91.84
2017-09-04T05:05:59.390Z,91.94
2017-09-04T05:06:59.387Z,91.94
2017-09-04T05:07:59.696Z,92.03
2017-09-04T05:08:59.371Z,92.03
2017-09-04T05:09:59.680Z,92.03
2017-09-04T05:10:59.674Z,91.84
2017-09-04T05:11:59.769Z,91.31
2017-09-04T05:12:59.347Z,92.17
2017-09-04T05:13:59.341Z,91.17
2017-09-04T05:14:59.649Z,91.03
2017-09-04T05:15:59.641Z,91.36
2017-09-04T05:16:59.323Z,92.22
2017-09-04T05:17:59.631Z,91.55
2017-09-04T05:18:59.634Z,92.22
2017-09-04T05:19:59.305Z,91.98
2017-09-04T05:20:59.613Z,91.94
2017-09-04T05:21:59.290Z,91.88
2017-09-04T05:22:59.291Z,92.08
2017-09-04T05:23:59.590Z,92.13
2017-09-04T05:24:59.583Z,91.98
2017-09-04T05:25:59.579Z,91.6
2017-09-04T05:26:59.575Z,92.03
2017-09-04T05:27:59.568Z,91.84
2017-09-04T05:28:59.564Z,91.31
2017-09-04T05:29:59.556Z,92.36
2017-09-04T05:30:59.236Z,92.08
2017-09-04T05:31:59.540Z,91.94
2017-09-04T05:32:59.221Z,92.17
2017-09-04T05:33:59.218Z,92.17
2017-09-04T05:34:59.625Z,91.88
2017-09-04T05:35:59.202Z,91.88
2017-09-04T05:36:59.198Z,92.08
2017-09-04T05:37:59.194Z,91.98
2017-09-04T05:38:59.185Z,91.98
2017-09-04T05:39:59.280Z,92.17
2017-09-04T05:40:59.174Z,91.88
2017-09-04T05:41:59.479Z,91.98
2017-09-04T05:42:59.160Z,91.88
2017-09-04T05:43:59.157Z,91.41
2017-09-04T05:44:59.251Z,91.22
2017-09-04T05:45:59.560Z,91.03
2017-09-04T05:46:59.137Z,91.69
2017-09-04T05:47:59.443Z,91.22
2017-09-04T05:48:59.124Z,91.22
2017-09-04T05:49:59.118Z,91.41
2017-09-04T05:50:59.212Z,91.13
2017-09-04T05:51:59.415Z,90.93
2017-09-04T05:52:59.411Z,91.31
2017-09-04T05:53:59.406Z,91.13
2017-09-04T05:54:59.086Z,91.31
2017-09-04T05:55:59.395Z,91.13
2017-09-04T05:56:59.076Z,91.31
2017-09-04T05:57:59.382Z,91.31
2017-09-04T05:58:59.473Z,91.07
2017-09-04T05:59:59.055Z,91.13
2017-09-04T06:00:59.048Z,91.07
2017-09-04T06:01:59.354Z,91.27
2017-09-04T06:02:59.353Z,91.07
2017-09-04T06:03:59.343Z,91.17
2017-09-04T06:04:59.025Z,91.27
2017-09-04T06:05:59.333Z,91.36
2017-09-04T06:06:59.325Z,91.36
2017-09-04T06:07:59.363Z,91.36
2017-09-04T06:08:58.999Z,91.64
2017-09-04T06:09:59.307Z,91.17
2017-09-04T06:10:58.987Z,91.36
2017-09-04T06:11:59.083Z,91.36
2017-09-04T06:12:59.288Z,91.46
2017-09-04T06:13:59.284Z,91.27
2017-09-04T06:14:59.277Z,91.36
2017-09-04T06:15:59.271Z,91.36
2017-09-04T06:16:59.466Z,92.12
2017-09-04T06:17:59.256Z,92.46
2017-09-04T06:18:59.355Z,92.07
2017-09-04T06:19:58.932Z,92.17
2017-09-04T06:20:58.928Z,92.17
2017-09-04T06:21:59.331Z,92.07
2017-09-04T06:22:58.912Z,92.46
2017-09-04T06:23:58.912Z,92.07
2017-09-04T06:24:59.216Z,92.07
2017-09-04T06:25:58.895Z,91.41
2017-09-04T06:26:58.889Z,91.21
2017-09-04T06:27:59.194Z,91.21
2017-09-04T06:28:59.189Z,91.02
2017-09-04T06:29:58.868Z,91.31
2017-09-04T06:30:59.177Z,91.41
2017-09-04T06:31:58.858Z,91.02
2017-09-04T06:32:59.162Z,91.5
2017-09-04T06:33:58.946Z,92.07
2017-09-04T06:34:58.840Z,92.36
2017-09-04T06:35:59.148Z,92.17
2017-09-04T06:36:59.141Z,92.36
2017-09-04T06:37:58.819Z,92.36
2017-09-04T06:38:59.128Z,92.17
2017-09-04T06:39:59.123Z,92.07
2017-09-04T06:40:59.115Z,92.83
2017-09-04T06:41:58.795Z,92.65
2017-09-04T06:42:58.791Z,92.46
2017-09-04T06:43:58.783Z,92.17
2017-09-04T06:44:59.096Z,92.74
2017-09-04T06:45:58.771Z,92.65
2017-09-04T06:46:58.769Z,93.31
2017-09-04T06:47:58.761Z,93.41
2017-09-04T06:48:59.067Z,92.93
2017-09-04T06:49:58.745Z,93.31
2017-09-04T06:50:59.156Z,93.31
2017-09-04T06:51:58.735Z,93.12
2017-09-04T06:52:59.041Z,92.97
2017-09-04T06:53:58.721Z,92.69
2017-09-04T06:54:58.714Z,92.88
2017-09-04T06:55:59.024Z,92.02
2017-09-04T06:56:59.016Z,92.21
2017-09-04T06:57:59.011Z,92.41
2017-09-04T06:58:58.690Z,91.74
2017-09-04T06:59:59.001Z,92.21
2017-09-04T07:00:58.992Z,91.45
2017-09-04T07:01:58.986Z,91.45
2017-09-04T07:02:58.980Z,91.45
2017-09-04T07:03:58.661Z,91.45
2017-09-04T07:04:58.974Z,91.45
2017-09-04T07:05:58.645Z,91.07
2017-09-04T07:06:58.956Z,91.36
2017-09-04T07:07:58.951Z,91.16
2017-09-04T07:08:58.942Z,91.45
2017-09-04T07:09:58.938Z,91.55
2017-09-04T07:10:58.930Z,91.64
2017-09-04T07:11:58.925Z,91.64
2017-09-04T07:12:58.919Z,91.16
2017-09-04T07:13:58.600Z,91.45
2017-09-04T07:14:58.906Z,91.36
2017-09-04T07:15:58.900Z,91.55
2017-09-04T07:16:58.890Z,91.45
2017-09-04T07:17:58.574Z,90.97
2017-09-04T07:18:58.570Z,90.69
2017-09-04T07:19:58.564Z,91.07
2017-09-04T07:20:58.556Z,90.4
2017-09-04T07:21:58.861Z,90.59
2017-09-04T07:22:58.544Z,90.78
2017-09-04T07:23:58.539Z,90.31
2017-09-04T07:24:58.842Z,90.54
2017-09-04T07:25:58.624Z,90.35
2017-09-04T07:26:58.521Z,90.54
2017-09-04T07:27:58.515Z,89.97
2017-09-04T07:28:58.509Z,90.25
2017-09-04T07:29:58.820Z,90.16
2017-09-04T07:30:58.494Z,90.54
2017-09-04T07:31:58.799Z,91.02
2017-09-04T07:32:58.794Z,90.73
2017-09-04T07:33:58.788Z,90.83
2017-09-04T07:34:58.469Z,91.11
2017-09-04T07:35:58.776Z,90.92
2017-09-04T07:36:58.461Z,90.73
2017-09-04T07:37:58.453Z,91.02
2017-09-04T07:38:58.445Z,90.92
2017-09-04T07:39:58.442Z,90.83
2017-09-04T07:40:58.432Z,91.02
2017-09-04T07:41:58.429Z,90.73
2017-09-04T07:42:58.423Z,90.73
2017-09-04T07:43:58.417Z,90.64
2017-09-04T07:44:58.411Z,90.45
2017-09-04T07:45:58.406Z,90.83
2017-09-04T07:46:58.712Z,90.35
2017-09-04T07:47:58.393Z,89.87
2017-09-04T07:48:58.702Z,90.64
2017-09-04T07:49:58.379Z,90.73
2017-09-04T07:50:58.688Z,90.16
2017-09-04T07:51:58.370Z,89.87
2017-09-04T07:52:58.364Z,89.59
2017-09-04T07:53:58.357Z,89.68
2017-09-04T07:54:58.665Z,89.49
2017-09-04T07:55:58.657Z,89.2
2017-09-04T07:56:58.653Z,89.3
2017-09-04T07:57:58.646Z,88.34
2017-09-04T07:58:58.640Z,88.54
2017-09-04T07:59:58.731Z,88.73
2017-09-04T08:00:58.628Z,88.63
2017-09-04T08:01:58.308Z,89.01
2017-09-04T08:02:58.300Z,88.82
2017-09-04T08:03:58.393Z,88.82
2017-09-04T08:04:58.604Z,88.63
2017-09-04T08:05:58.282Z,88.63
2017-09-04T08:06:58.591Z,88.92
2017-09-04T08:07:58.273Z,88.63
2017-09-04T08:08:58.263Z,88.92
2017-09-04T08:09:58.574Z,88.54
2017-09-04T08:10:58.255Z,88.54
2017-09-04T08:11:58.558Z,88.44
2017-09-04T08:12:58.552Z,88.73
2017-09-04T08:13:58.235Z,89.01
2017-09-04T08:14:58.541Z,89.2
2017-09-04T08:15:58.534Z,89.3
2017-09-04T08:16:58.530Z,89.01
2017-09-04T08:17:58.524Z,88.92
2017-09-04T08:18:58.241Z,89.68
2017-09-04T08:19:58.508Z,89.68
2017-09-04T08:20:58.510Z,89.59
2017-09-04T08:21:58.186Z,89.49
2017-09-04T08:22:58.491Z,89.01
2017-09-04T08:23:58.175Z,89.59
2017-09-04T08:24:58.166Z,89.68
2017-09-04T08:25:58.474Z,89.49
2017-09-04T08:26:58.154Z,89.39
2017-09-04T08:27:58.460Z,89.53
2017-09-04T08:28:58.145Z,89.15
2017-09-04T08:29:58.450Z,88.87
2017-09-04T08:30:58.131Z,89.06
2017-09-04T08:31:58.437Z,88.58
2017-09-04T08:32:58.121Z,88.39
2017-09-04T08:33:58.112Z,88.68
2017-09-04T08:34:58.421Z,88.58
2017-09-04T08:35:58.101Z,88.29
2017-09-04T08:36:58.406Z,88.96
2017-09-04T08:37:58.400Z,88.62
2017-09-04T08:38:58.083Z,88.24
2017-09-04T08:39:58.391Z,87.38
2017-09-04T08:40:58.070Z,87.66
2017-09-04T08:41:58.066Z,87.48
2017-09-04T08:42:58.369Z,87.48
2017-09-04T08:43:58.365Z,87.66
2017-09-04T08:44:58.049Z,87.76
2017-09-04T08:45:58.041Z,87.57
2017-09-04T08:46:58.033Z,87.66
2017-09-04T08:47:58.032Z,87.66
2017-09-04T08:48:58.342Z,87.09
2017-09-04T08:49:58.017Z,87.19
2017-09-04T08:50:58.326Z,87.09
2017-09-04T08:51:58.317Z,87.09
2017-09-04T08:52:58.000Z,86.61
2017-09-04T08:53:58.304Z,86.9
2017-09-04T08:54:57.992Z,87.19
2017-09-04T08:55:57.981Z,86.9
2017-09-04T08:56:57.975Z,86.9
2017-09-04T08:57:58.284Z,87
2017-09-04T08:58:58.279Z,86.66
2017-09-04T08:59:57.957Z,86.08
2017-09-04T09:00:57.951Z,85.8
2017-09-04T09:01:57.944Z,85.66
2017-09-04T09:02:57.941Z,85.57
2017-09-04T09:03:58.252Z,85.57
2017-09-04T09:04:58.239Z,85.94
2017-09-04T09:05:58.236Z,85.38
2017-09-04T09:06:58.328Z,85.28
2017-09-04T09:07:58.221Z,85.38
2017-09-04T09:08:58.006Z,85.57
2017-09-04T09:09:58.209Z,85.75
2017-09-04T09:10:57.992Z,85.75
2017-09-04T09:11:58.301Z,85.85
2017-09-04T09:12:58.196Z,85.71
2017-09-04T09:13:58.190Z,85.8
2017-09-04T09:14:57.870Z,85.03
2017-09-04T09:15:58.278Z,85.13
2017-09-04T09:16:58.175Z,84.84
2017-09-04T09:17:58.165Z,84.75
2017-09-04T09:18:58.164Z,84.55
2017-09-04T09:19:57.839Z,84.46
2017-09-04T09:20:58.150Z,84.55
2017-09-04T09:21:58.144Z,84.36
2017-09-04T09:22:58.138Z,84.27
2017-09-04T09:23:58.132Z,84.55
2017-09-04T09:24:58.124Z,85.41
2017-09-04T09:25:58.120Z,85.03
2017-09-04T09:26:57.799Z,84.46
2017-09-04T09:27:58.110Z,84.65
2017-09-04T09:28:58.101Z,84.65
2017-09-04T09:29:58.096Z,84.46
2017-09-04T09:30:58.090Z,84.65
2017-09-04T09:31:58.084Z,84.41
2017-09-04T09:32:58.078Z,84.41
2017-09-04T09:33:57.761Z,84.55
2017-09-04T09:34:58.070Z,83.93
2017-09-04T09:35:58.059Z,84.02
2017-09-04T09:36:57.840Z,83.83
2017-09-04T09:37:57.733Z,83.83
2017-09-04T09:38:58.040Z,83.64
2017-09-04T09:39:58.037Z,84.12
2017-09-04T09:40:57.716Z,83.93
2017-09-04T09:41:58.023Z,83.36
2017-09-04T09:42:58.017Z,83.26
2017-09-04T09:43:58.010Z,83.26
2017-09-04T09:44:58.005Z,83.45
2017-09-04T09:45:57.999Z,82.97
2017-09-04T09:46:57.680Z,82.49
2017-09-04T09:47:57.988Z,82.01
2017-09-04T09:48:57.986Z,82.4
2017-09-04T09:49:57.979Z,81.92
2017-09-04T09:50:57.971Z,82.2
2017-09-04T09:51:57.652Z,81.63
2017-09-04T09:52:57.646Z,81.63
2017-09-04T09:53:57.643Z,81.63
2017-09-04T09:54:57.633Z,81.92
2017-09-04T09:55:57.943Z,81.96
2017-09-04T09:56:57.624Z,82.06
2017-09-04T09:57:57.939Z,81.77
2017-09-04T09:58:57.922Z,81.86
2017-09-04T09:59:57.605Z,81.86
2017-09-04T10:00:57.914Z,82.43
2017-09-04T10:01:57.595Z,82.24
2017-09-04T10:02:57.587Z,82.43
2017-09-04T10:03:57.901Z,81.86
2017-09-04T10:04:57.889Z,82.15
2017-09-04T10:05:57.571Z,82.06
2017-09-04T10:06:57.877Z,81.71
2017-09-04T10:07:57.557Z,81.9
2017-09-04T10:08:57.866Z,81.71
2017-09-04T10:09:57.859Z,81.52
2017-09-04T10:10:57.856Z,81.62
2017-09-04T10:11:57.852Z,82
2017-09-04T10:12:57.844Z,81.33
2017-09-04T10:13:57.526Z,81.52
2017-09-04T10:14:57.519Z,81.23
2017-09-04T10:15:57.825Z,80.94
2017-09-04T10:16:57.507Z,81.04
2017-09-04T10:17:57.502Z,81.43
2017-09-04T10:18:57.494Z,80.47
2017-09-04T10:19:57.801Z,80.47
2017-09-04T10:20:57.486Z,80.27
2017-09-04T10:21:57.796Z,80.56
2017-09-04T10:22:57.573Z,79.89
2017-09-04T10:23:57.780Z,79.89
2017-09-04T10:24:57.778Z,80.18
2017-09-04T10:25:57.769Z,80.27
2017-09-04T10:26:57.760Z,79.6
2017-09-04T10:27:57.759Z,79.51
2017-09-04T10:28:57.753Z,79.26
2017-09-04T10:29:57.750Z,79.26
2017-09-04T10:30:57.429Z,78.88
2017-09-04T10:31:57.732Z,77.06
2017-09-04T10:32:57.731Z,75.62
2017-09-04T10:33:57.725Z,73.99
2017-09-04T10:34:57.405Z,73.03
2017-09-04T10:35:57.713Z,71.5
2017-09-04T10:36:57.706Z,69.39
2017-09-04T10:37:57.386Z,68.72
2017-09-04T10:38:57.480Z,68.62
2017-09-04T10:39:57.377Z,68.81
2017-09-04T10:40:57.370Z,68.43
2017-09-04T10:41:57.364Z,68.66
2017-09-04T10:42:57.670Z,68.75
2017-09-04T10:43:57.353Z,69.52
2017-09-04T10:44:57.347Z,69.71
2017-09-04T10:45:57.655Z,70.48
2017-09-04T10:46:57.334Z,71.25
2017-09-04T10:47:57.750Z,71.25
2017-09-04T10:48:57.324Z,70.67
2017-09-04T10:49:57.320Z,71.05
2017-09-04T10:50:57.312Z,71.15
2017-09-04T10:51:57.309Z,71.28
2017-09-04T10:52:57.715Z,70.67
2017-09-04T10:53:57.297Z,70.32
2017-09-04T10:54:57.292Z,70.51
2017-09-04T10:55:57.286Z,70.23
2017-09-04T10:56:57.279Z,69.74
2017-09-04T10:57:57.274Z,69.93
2017-09-04T10:58:57.580Z,69.74
2017-09-04T10:59:57.573Z,69.26
2017-09-04T11:00:57.669Z,68.98
2017-09-04T11:01:57.250Z,68.69
2017-09-04T11:02:57.559Z,68.79
2017-09-04T11:03:57.552Z,69.01
2017-09-04T11:04:57.550Z,68.53
2017-09-04T11:05:57.544Z,68.15
2017-09-04T11:06:57.223Z,67.57
2017-09-04T11:07:57.528Z,67.76
2017-09-04T11:08:57.527Z,67.38
2017-09-04T11:09:57.520Z,66.9
2017-09-04T11:10:57.513Z,65.75
2017-09-04T11:11:57.507Z,64.79
2017-09-04T11:12:57.189Z,64.89
2017-09-04T11:13:57.183Z,64.69
2017-09-04T11:14:57.180Z,64.79
2017-09-04T11:15:57.173Z,63.35
2017-09-04T11:16:57.479Z,63.06
2017-09-04T11:17:57.472Z,62.77
2017-09-04T11:18:57.156Z,61.72
2017-09-04T11:19:57.149Z,62.32
2017-09-04T11:20:57.147Z,62.23
2017-09-04T11:21:57.551Z,62.61
2017-09-04T11:22:57.133Z,62.81
2017-09-04T11:23:57.129Z,62.99
2017-09-04T11:24:57.125Z,62.99
2017-09-04T11:25:57.432Z,63.28
2017-09-04T11:26:57.422Z,63.09
2017-09-04T11:27:57.420Z,62.99
2017-09-04T11:28:57.104Z,62.99
2017-09-04T11:29:57.093Z,62.81
2017-09-04T11:30:57.403Z,62.52
2017-09-04T11:31:57.403Z,62.52
2017-09-04T11:32:57.079Z,62.42
2017-09-04T11:33:57.172Z,59.92
2017-09-04T11:34:57.482Z,57.33
2017-09-04T11:35:57.068Z,57.43
2017-09-04T11:36:57.058Z,55.79
2017-09-04T11:37:57.052Z,56.18
2017-09-04T11:38:57.045Z,55.89
2017-09-04T11:39:57.453Z,54.93
2017-09-04T11:40:57.346Z,54.25
2017-09-04T11:41:57.345Z,52.53
2017-09-04T11:42:57.024Z,52.05
2017-09-04T11:43:57.332Z,50.61
2017-09-04T11:44:57.012Z,50.7
2017-09-04T11:45:57.009Z,51.09
2017-09-04T11:46:57.318Z,51.5
2017-09-04T11:47:57.311Z,51.59
2017-09-04T11:48:57.307Z,51.91
2017-09-04T11:49:57.297Z,51.53
2017-09-04T11:50:57.080Z,50.76
2017-09-04T11:51:56.975Z,51.14
2017-09-04T11:52:56.970Z,51.62
2017-09-04T11:53:57.281Z,51.72
2017-09-04T11:54:56.957Z,51.72
2017-09-04T11:55:56.953Z,51.53
2017-09-04T11:56:57.269Z,51.62
2017-09-04T11:57:56.944Z,51.91
2017-09-04T11:58:56.936Z,52
2017-09-04T11:59:56.933Z,52.58
2017-09-04T12:00:57.240Z,52.29
2017-09-04T12:01:57.236Z,52.29
2017-09-04T12:02:56.917Z,52.2
2017-09-04T12:03:56.910Z,52.2
2017-09-04T12:04:57.220Z,52.2
2017-09-04T12:05:56.902Z,51.62
2017-09-04T12:06:56.894Z,51.72
2017-09-04T12:07:56.888Z,51.62
2017-09-04T12:08:56.887Z,51.72
2017-09-04T12:09:57.197Z,51.33
2017-09-04T12:10:56.875Z,50.76
2017-09-04T12:11:56.868Z,50.63
2017-09-04T12:12:56.863Z,50.56
2017-09-04T12:13:56.858Z,50.27
2017-09-04T12:14:56.853Z,50.66
2017-09-04T12:15:56.848Z,51.04
2017-09-04T12:16:56.843Z,51.04
2017-09-04T12:17:57.253Z,51.53
2017-09-04T12:18:57.144Z,50.27
2017-09-04T12:19:56.827Z,48.54
2017-09-04T12:20:57.134Z,47.49
2017-09-04T12:21:56.914Z,47.97
2017-09-04T12:22:56.812Z,47.97
2017-09-04T12:23:57.118Z,48.07
2017-09-04T12:24:57.112Z,48.25
2017-09-04T12:25:56.796Z,47.87
2017-09-04T12:26:56.788Z,47.39
2017-09-04T12:27:56.885Z,47.2
2017-09-04T12:28:56.779Z,47.39
2017-09-04T12:29:57.088Z,46.33
2017-09-04T12:30:57.089Z,46.33
2017-09-04T12:31:57.080Z,46.62
2017-09-04T12:32:57.073Z,46.84
2017-09-04T12:33:57.168Z,47.31
2017-09-04T12:34:57.059Z,47.31
2017-09-04T12:35:56.744Z,47.7
2017-09-04T12:36:57.054Z,48.47
2017-09-04T12:37:57.050Z,48.47
2017-09-04T12:38:56.728Z,48.57
2017-09-04T12:39:57.034Z,49.05
2017-09-04T12:40:56.716Z,49.43
2017-09-04T12:41:56.711Z,49.24
2017-09-04T12:42:56.707Z,49.91
2017-09-04T12:43:57.017Z,49.91
2017-09-04T12:44:57.012Z,49.91
2017-09-04T12:45:57.008Z,49.74
2017-09-04T12:46:56.685Z,49.55
2017-09-04T12:47:56.995Z,49.27
2017-09-04T12:48:56.776Z,49.27
2017-09-04T12:49:56.983Z,49.72
2017-09-04T12:50:57.080Z,50.3
2017-09-04T12:51:56.974Z,49.82
2017-09-04T12:52:56.967Z,49.82
2017-09-04T12:53:57.068Z,49.91
2017-09-04T12:54:56.958Z,49.72